aviador You're here:

KHYR Decoded Metar

HAYWARD in WI, USA
Report Time2018-01-22 11:53:00
UTC Time2018-01-22 12:12:30
Flight Rules mvfr MVFR
Wind050° at 15 Gusting to 24 kt
W.Decomp.*RWY 03: 14.1 kt HW 5.1 kt RCW
RWY 02: 13.0 kt HW 7.5 kt RCW
RWY 34: 5.1 kt HW 14.1 kt RCW
W.Rank050° ranks 15
Current wind is above 050° avg. (6.2)
Visibility9999 m
Phenomena:N/A
Clouds:Overcast 012 Hf
Expected CloudBase > 1,200 ft AGL from Temp-Dew spread
Ceiling1,200 ft
Temp-1°C (ISA -14)
Dew Point-4°C (80% RH)
AAT-8.9°C
QNH1013 hPa
Density Alt-377 ft
Elevation1,214 ft
Report Wrong Elevation
Raw Report
KHYR 221153Z AUTO 05015G24KT 10SM OVC012 M01/M04 A2992 RMK AO2
SNE41 SLP147 P0000 60000 T10111039 11006 21011 56018=

Extra information for KHYR:More info

Metar Taf Metar & Taf Last 4 Metars F.Rules Stats Wind Profile Meteogram Temp Stats Airport Information Weather charts Add Link Nearby VenuesMetar ALERT Operation Metar Decoded Social comments

AIRNAV info for KHYR